createdAt,value
2018-06-20T00:00:02.380Z,98523.73
2018-06-20T00:00:33.995Z,98511.78
2018-06-20T00:01:05.602Z,98518.19
2018-06-20T00:01:37.190Z,98518.61
2018-06-20T00:02:08.809Z,98518.19
2018-06-20T00:02:40.393Z,98513.96
2018-06-20T00:03:11.982Z,98519.48
2018-06-20T00:03:43.565Z,98518.23
2018-06-20T00:04:15.132Z,98513.97
2018-06-20T00:04:46.738Z,98517.80
2018-06-20T00:05:18.335Z,98518.24
2018-06-20T00:05:49.984Z,98525.08
2018-06-20T00:06:21.573Z,98517.81
2018-06-20T00:06:53.189Z,98516.53
2018-06-20T00:07:24.794Z,98516.97
2018-06-20T00:07:56.363Z,98517.39
2018-06-20T00:08:27.966Z,98514.03
2018-06-20T00:08:59.559Z,98520.38
2018-06-20T00:09:31.141Z,98512.70
2018-06-20T00:10:02.724Z,98516.97
2018-06-20T00:10:34.325Z,98510.62
2018-06-20T00:11:05.973Z,98511.04
2018-06-20T00:11:37.565Z,98513.61
2018-06-20T00:12:09.132Z,98509.77
2018-06-20T00:12:40.704Z,98514.94
2018-06-20T00:13:12.305Z,98511.52
2018-06-20T00:13:43.885Z,98511.53
2018-06-20T00:14:15.493Z,98512.80
2018-06-20T00:14:47.081Z,98517.46
2018-06-20T00:15:18.685Z,98513.66
2018-06-20T00:15:50.256Z,98514.94
2018-06-20T00:16:21.913Z,98517.08
2018-06-20T00:16:53.504Z,98515.80
2018-06-20T00:17:25.109Z,98514.09
2018-06-20T00:17:56.713Z,98512.39
2018-06-20T00:18:28.297Z,98511.11
2018-06-20T00:18:59.887Z,98514.10
2018-06-20T00:19:31.464Z,98515.81
2018-06-20T00:20:03.051Z,98518.38
2018-06-20T00:20:34.655Z,98517.95
2018-06-20T00:21:06.266Z,98518.80
2018-06-20T00:21:37.880Z,98515.38
2018-06-20T00:22:09.513Z,98522.64
2018-06-20T00:22:41.117Z,98519.70
2018-06-20T00:23:12.688Z,98517.98
2018-06-20T00:23:44.297Z,98513.73
2018-06-20T00:24:15.959Z,98523.55
2018-06-20T00:24:47.549Z,98514.57
2018-06-20T00:25:19.130Z,98521.41
2018-06-20T00:25:50.719Z,98516.72
2018-06-20T00:26:22.316Z,98518.00
2018-06-20T00:26:53.902Z,98519.72
2018-06-20T00:27:25.552Z,98512.02
2018-06-20T00:27:57.141Z,98522.70
2018-06-20T00:28:28.790Z,98521.46
2018-06-20T00:29:00.378Z,98516.77
2018-06-20T00:29:31.958Z,98517.62
2018-06-20T00:30:03.538Z,98519.33
2018-06-20T00:30:35.142Z,98517.58
2018-06-20T00:31:06.749Z,98512.40
2018-06-20T00:31:38.357Z,98521.41
2018-06-20T00:32:09.945Z,98511.55
2018-06-20T00:32:41.516Z,98518.38
2018-06-20T00:33:13.126Z,98516.23
2018-06-20T00:33:44.765Z,98511.97
2018-06-20T00:34:16.360Z,98517.95
2018-06-20T00:34:47.955Z,98517.09
2018-06-20T00:35:19.570Z,98520.13
2018-06-20T00:35:51.140Z,98518.85
2018-06-20T00:36:22.749Z,98515.86
2018-06-20T00:36:54.329Z,98515.00
2018-06-20T00:37:25.910Z,98515.44
2018-06-20T00:37:57.480Z,98514.58
2018-06-20T00:38:29.048Z,98515.86
2018-06-20T00:39:00.677Z,98515.01
2018-06-20T00:39:32.257Z,98521.00
2018-06-20T00:40:03.842Z,98522.70
2018-06-20T00:40:35.482Z,98511.64
2018-06-20T00:41:07.071Z,98514.20
2018-06-20T00:41:38.656Z,98515.91
2018-06-20T00:42:10.265Z,98515.91
2018-06-20T00:42:41.845Z,98515.06
2018-06-20T00:43:13.447Z,98512.07
2018-06-20T00:43:45.034Z,98518.90
2018-06-20T00:44:16.621Z,98515.06
2018-06-20T00:44:48.225Z,98519.33
2018-06-20T00:45:19.829Z,98517.63
2018-06-20T00:45:51.467Z,98516.34
2018-06-20T00:46:23.054Z,98515.92
2018-06-20T00:46:54.729Z,98516.77
2018-06-20T00:47:27.386Z,98512.52
2018-06-20T00:47:58.984Z,98512.52
2018-06-20T00:48:30.590Z,98512.52
2018-06-20T00:49:02.173Z,98511.23
2018-06-20T00:49:33.790Z,98509.95
2018-06-20T00:50:05.377Z,98509.95
2018-06-20T00:50:36.952Z,98507.86
2018-06-20T00:51:08.578Z,98507.44
2018-06-20T00:51:40.159Z,98508.29
2018-06-20T00:52:11.761Z,98512.13
2018-06-20T00:52:43.336Z,98507.87
2018-06-20T00:53:14.937Z,98502.74
2018-06-20T00:53:46.549Z,98506.16
2018-06-20T00:54:18.145Z,98507.45
2018-06-20T00:54:49.784Z,98510.00
2018-06-20T00:55:21.376Z,98510.86
2018-06-20T00:55:52.986Z,98507.02
2018-06-20T00:56:24.584Z,98504.08
2018-06-20T00:56:56.159Z,98510.00
2018-06-20T00:57:27.791Z,98508.72
2018-06-20T00:57:59.369Z,98509.16
2018-06-20T00:58:30.959Z,98509.16
2018-06-20T00:59:02.545Z,98504.88
2018-06-20T00:59:34.150Z,98508.28
2018-06-20T01:00:05.724Z,98500.61
2018-06-20T01:00:37.375Z,98505.25
2018-06-20T01:01:08.954Z,98506.95
2018-06-20T01:01:40.537Z,98503.53
2018-06-20T01:02:12.104Z,98501.83
2018-06-20T01:02:43.749Z,98503.95
2018-06-20T01:03:15.393Z,98500.50
2018-06-20T01:03:46.989Z,98501.34
2018-06-20T01:04:18.629Z,98503.42
2018-06-20T01:04:50.237Z,98500.44
2018-06-20T01:05:21.822Z,98504.28
2018-06-20T01:05:53.406Z,98501.28
2018-06-20T01:06:24.990Z,98507.67
2018-06-20T01:06:56.583Z,98503.84
2018-06-20T01:07:28.165Z,98502.57
2018-06-20T01:07:59.769Z,98501.27
2018-06-20T01:08:31.373Z,98502.95
2018-06-20T01:09:02.969Z,98501.27
2018-06-20T01:09:34.608Z,98510.23
2018-06-20T01:10:06.210Z,98511.05
2018-06-20T01:10:37.788Z,98508.95
2018-06-20T01:11:09.360Z,98502.09
2018-06-20T01:11:40.956Z,98501.27
2018-06-20T01:12:12.551Z,98489.94
2018-06-20T01:12:44.130Z,98502.95
2018-06-20T01:13:15.736Z,98502.55
2018-06-20T01:13:47.312Z,98501.66
2018-06-20T01:14:18.894Z,98510.63
2018-06-20T01:14:50.513Z,98503.84
2018-06-20T01:15:22.083Z,98508.95
2018-06-20T01:15:53.661Z,98507.21
2018-06-20T01:16:25.270Z,98502.94
2018-06-20T01:16:56.844Z,98502.08
2018-06-20T01:17:28.421Z,98505.92
2018-06-20T01:18:00.025Z,98506.36
2018-06-20T01:18:31.628Z,98504.22
2018-06-20T01:19:03.213Z,98501.66
2018-06-20T01:19:34.862Z,98504.64
2018-06-20T01:20:06.449Z,98505.08
2018-06-20T01:20:38.030Z,98504.22
2018-06-20T01:21:09.633Z,98502.94
2018-06-20T01:21:41.231Z,98502.08
2018-06-20T01:22:12.812Z,98505.08
2018-06-20T01:22:44.393Z,98502.52
2018-06-20T01:23:15.993Z,98498.71
2018-06-20T01:23:47.578Z,98502.56
2018-06-20T01:24:19.205Z,98502.98
2018-06-20T01:24:50.848Z,98504.27
2018-06-20T01:25:22.453Z,98504.27
2018-06-20T01:25:54.101Z,98504.27
2018-06-20T01:26:25.734Z,98505.55
2018-06-20T01:26:57.318Z,98506.41
2018-06-20T01:27:28.911Z,98508.97
2018-06-20T01:28:00.503Z,98508.97
2018-06-20T01:28:32.075Z,98516.64
2018-06-20T01:29:03.682Z,98512.81
2018-06-20T01:29:35.285Z,98503.42
2018-06-20T01:30:06.870Z,98504.70
2018-06-20T01:30:38.474Z,98507.27
2018-06-20T01:31:10.081Z,98508.98
2018-06-20T01:31:41.713Z,98508.98
2018-06-20T01:32:13.297Z,98508.13
2018-06-20T01:32:44.888Z,98512.39
2018-06-20T01:33:16.480Z,98503.86
2018-06-20T01:33:48.062Z,98506.00
2018-06-20T01:34:19.669Z,98508.55
2018-06-20T01:34:51.281Z,98509.02
2018-06-20T01:35:22.856Z,98513.25
2018-06-20T01:35:54.434Z,98511.55
2018-06-20T01:36:26.022Z,98509.03
2018-06-20T01:36:57.683Z,98506.88
2018-06-20T01:37:29.290Z,98512.39
2018-06-20T01:38:00.936Z,98506.00
2018-06-20T01:38:32.518Z,98509.84
2018-06-20T01:39:04.084Z,98515.38
2018-06-20T01:39:35.688Z,98516.70
2018-06-20T01:40:07.312Z,98507.31
2018-06-20T01:40:38.916Z,98517.14
2018-06-20T01:41:10.505Z,98512.86
2018-06-20T01:41:42.125Z,98513.30
2018-06-20T01:42:13.732Z,98512.44
2018-06-20T01:42:45.331Z,98508.59
2018-06-20T01:43:16.938Z,98514.57
2018-06-20T01:43:48.541Z,98507.31
2018-06-20T01:44:20.125Z,98511.58
2018-06-20T01:44:51.701Z,98514.96
2018-06-20T01:45:23.293Z,98511.12
2018-06-20T01:45:54.901Z,98522.25
2018-06-20T01:46:26.481Z,98515.84
2018-06-20T01:46:58.169Z,98514.14
2018-06-20T01:47:29.768Z,98515.38
2018-06-20T01:48:01.373Z,98520.97
2018-06-20T01:48:32.957Z,98514.96
2018-06-20T01:49:04.548Z,98519.70
2018-06-20T01:49:36.153Z,98509.02
2018-06-20T01:50:07.742Z,98521.83
2018-06-20T01:50:39.344Z,98517.52
2018-06-20T01:51:10.929Z,98513.30
2018-06-20T01:51:42.518Z,98522.27
2018-06-20T01:52:14.268Z,98510.74
2018-06-20T01:52:45.843Z,98512.34
2018-06-20T01:53:17.509Z,98508.95
2018-06-20T01:53:49.098Z,98509.39
2018-06-20T01:54:20.708Z,98509.81
2018-06-20T01:54:52.293Z,98507.69
2018-06-20T01:55:23.893Z,98508.55
2018-06-20T01:55:55.464Z,98511.52
2018-06-20T01:56:27.071Z,98515.32
2018-06-20T01:56:58.695Z,98510.23
2018-06-20T01:57:30.302Z,98509.82
2018-06-20T01:58:01.876Z,98509.40
2018-06-20T01:58:33.462Z,98508.97
2018-06-20T01:59:05.041Z,98510.30
2018-06-20T01:59:36.642Z,98513.67
2018-06-20T02:00:08.226Z,98513.73
2018-06-20T02:00:39.805Z,98515.44
2018-06-20T02:01:11.386Z,98517.57
2018-06-20T02:01:42.965Z,98513.73
2018-06-20T02:02:14.562Z,98519.28
2018-06-20T02:02:46.152Z,98509.47
2018-06-20T02:03:17.733Z,98518.86
2018-06-20T02:03:49.334Z,98515.88
2018-06-20T02:04:20.946Z,98512.88
2018-06-20T02:04:52.602Z,98509.46
2018-06-20T02:05:24.210Z,98506.48
2018-06-20T02:05:55.780Z,98503.05
2018-06-20T02:06:27.359Z,98515.02
2018-06-20T02:06:58.963Z,98511.17
2018-06-20T02:07:30.570Z,98513.30
2018-06-20T02:08:02.164Z,98509.03
2018-06-20T02:08:33.769Z,98509.08
2018-06-20T02:09:05.397Z,98511.64
2018-06-20T02:09:37.001Z,98512.92
2018-06-20T02:10:08.604Z,98509.51
2018-06-20T02:10:40.186Z,98506.95
2018-06-20T02:11:11.766Z,98515.44
2018-06-20T02:11:43.369Z,98512.02
2018-06-20T02:12:14.950Z,98502.20
2018-06-20T02:12:46.549Z,98514.58
2018-06-20T02:13:18.120Z,98510.31
2018-06-20T02:13:49.761Z,98506.05
2018-06-20T02:14:21.336Z,98487.19
2018-06-20T02:14:52.937Z,98510.36
2018-06-20T02:15:24.533Z,98506.91
2018-06-20T02:15:56.103Z,98513.35
2018-06-20T02:16:27.705Z,98508.23
2018-06-20T02:16:59.289Z,98515.92
2018-06-20T02:17:30.893Z,98512.50
2018-06-20T02:18:02.493Z,98512.98
2018-06-20T02:18:34.121Z,98513.36
2018-06-20T02:19:05.726Z,98518.06
2018-06-20T02:19:37.368Z,98518.48
2018-06-20T02:20:09.005Z,98515.50
2018-06-20T02:20:40.600Z,98522.75
2018-06-20T02:21:12.186Z,98523.19
2018-06-20T02:21:43.766Z,98512.98
2018-06-20T02:22:15.369Z,98512.98
2018-06-20T02:22:46.957Z,98519.39
2018-06-20T02:23:18.552Z,98518.97
2018-06-20T02:23:50.183Z,98521.95
2018-06-20T02:24:21.778Z,98521.53
2018-06-20T02:24:53.390Z,98519.39
2018-06-20T02:25:24.978Z,98523.66
2018-06-20T02:25:56.607Z,98524.52
2018-06-20T02:26:28.193Z,98522.81
2018-06-20T02:26:59.777Z,98524.52
2018-06-20T02:27:31.368Z,98523.24
2018-06-20T02:28:02.974Z,98521.11
2018-06-20T02:28:34.596Z,98521.97
2018-06-20T02:29:06.183Z,98524.53
2018-06-20T02:29:37.769Z,98519.02
2018-06-20T02:30:09.346Z,98524.14
2018-06-20T02:30:40.961Z,98521.59
2018-06-20T02:31:12.528Z,98524.14
2018-06-20T02:31:44.110Z,98527.09
2018-06-20T02:32:15.709Z,98523.29
2018-06-20T02:32:47.303Z,98519.46
2018-06-20T02:33:18.910Z,98528.84
2018-06-20T02:33:50.548Z,98525.00
2018-06-20T02:34:22.120Z,98523.29
2018-06-20T02:34:53.708Z,98522.44
2018-06-20T02:35:25.281Z,98525.42
2018-06-20T02:35:56.885Z,98523.30
2018-06-20T02:36:28.470Z,98524.58
2018-06-20T02:37:00.044Z,98525.05
2018-06-20T02:37:31.647Z,98526.34
2018-06-20T02:38:03.270Z,98524.16
2018-06-20T02:38:34.878Z,98527.19
2018-06-20T02:39:06.479Z,98524.63
2018-06-20T02:39:38.058Z,98524.63
2018-06-20T02:40:09.640Z,98520.32
2018-06-20T02:40:41.214Z,98518.98
2018-06-20T02:41:12.789Z,98528.29
2018-06-20T02:41:44.397Z,98522.87
2018-06-20T02:42:15.992Z,98518.44
2018-06-20T02:42:47.573Z,98529.28
2018-06-20T02:43:19.193Z,98529.21
2018-06-20T02:43:50.777Z,98526.12
2018-06-20T02:44:22.363Z,98520.41
2018-06-20T02:44:53.950Z,98520.25
2018-06-20T02:45:25.529Z,98529.30
2018-06-20T02:45:57.186Z,98527.77
2018-06-20T02:46:28.774Z,98525.69
2018-06-20T02:47:00.358Z,98521.47
2018-06-20T02:47:31.962Z,98525.34
2018-06-20T02:48:03.550Z,98528.33
2018-06-20T02:48:35.130Z,98526.12
2018-06-20T02:49:06.714Z,98527.69
2018-06-20T02:49:38.293Z,98516.80
2018-06-20T02:50:09.870Z,98518.31
2018-06-20T02:50:41.458Z,98520.41
2018-06-20T02:51:13.072Z,98520.45
2018-06-20T02:51:44.674Z,98521.02
2018-06-20T02:52:16.283Z,98516.89
2018-06-20T02:52:47.989Z,98524.14
2018-06-20T02:53:19.514Z,98522.91
2018-06-20T02:53:51.098Z,98522.02
2018-06-20T02:54:22.734Z,98521.58
2018-06-20T02:54:54.321Z,98523.67
2018-06-20T02:55:25.925Z,98526.31
2018-06-20T02:55:57.538Z,98520.78
2018-06-20T02:56:29.141Z,98522.91
2018-06-20T02:57:00.720Z,98519.07
2018-06-20T02:57:32.322Z,98521.67
2018-06-20T02:58:03.971Z,98523.39
2018-06-20T02:58:35.545Z,98525.00
2018-06-20T02:59:07.156Z,98525.19
2018-06-20T02:59:38.775Z,98523.34
2018-06-20T03:00:10.372Z,98527.53
2018-06-20T03:00:41.952Z,98530.42
2018-06-20T03:01:13.524Z,98535.06
2018-06-20T03:01:45.100Z,98530.75
2018-06-20T03:02:16.710Z,98532.83
2018-06-20T03:02:48.307Z,98528.52
2018-06-20T03:03:19.921Z,98525.91
2018-06-20T03:03:51.513Z,98525.48
2018-06-20T03:04:23.102Z,98529.73
2018-06-20T03:04:54.696Z,98530.98
2018-06-20T03:05:26.310Z,98530.13
2018-06-20T03:05:57.904Z,98533.48
2018-06-20T03:06:29.485Z,98524.11
2018-06-20T03:07:01.057Z,98528.84
2018-06-20T03:07:32.672Z,98514.08
2018-06-20T03:08:04.274Z,98531.40
2018-06-20T03:08:35.872Z,98511.13
2018-06-20T03:09:07.453Z,98527.95
2018-06-20T03:09:39.038Z,98530.08
2018-06-20T03:10:10.624Z,98527.55
2018-06-20T03:10:42.233Z,98536.89
2018-06-20T03:11:13.822Z,98528.36
2018-06-20T03:11:45.397Z,98529.22
2018-06-20T03:12:17.020Z,98530.92
2018-06-20T03:12:48.624Z,98530.93
2018-06-20T03:13:20.207Z,98529.69
2018-06-20T03:13:51.792Z,98530.55
2018-06-20T03:14:23.397Z,98529.31
2018-06-20T03:14:55.006Z,98532.69
2018-06-20T03:15:26.625Z,98535.67
2018-06-20T03:15:58.233Z,98529.70
2018-06-20T03:16:29.838Z,98536.09
2018-06-20T03:17:01.433Z,98534.86
2018-06-20T03:17:33.022Z,98533.16
2018-06-20T03:18:04.640Z,98533.58
2018-06-20T03:18:36.217Z,98533.97
2018-06-20T03:19:07.818Z,98529.70
2018-06-20T03:19:39.401Z,98531.83
2018-06-20T03:20:10.986Z,98527.99
2018-06-20T03:20:42.567Z,98531.41
2018-06-20T03:21:14.146Z,98525.44
2018-06-20T03:21:45.740Z,98534.86
2018-06-20T03:22:17.320Z,98525.05
2018-06-20T03:22:48.912Z,98525.10
2018-06-20T03:23:20.593Z,98532.31
2018-06-20T03:23:52.194Z,98529.33
2018-06-20T03:24:23.858Z,98534.44
2018-06-20T03:24:55.486Z,98531.50
2018-06-20T03:25:27.085Z,98529.80
2018-06-20T03:25:58.695Z,98531.93
2018-06-20T03:26:30.302Z,98531.03
2018-06-20T03:27:01.914Z,98531.03
2018-06-20T03:27:33.525Z,98532.73
2018-06-20T03:28:05.113Z,98539.98
2018-06-20T03:28:36.713Z,98537.86
2018-06-20T03:29:08.325Z,98537.86
2018-06-20T03:29:39.914Z,98532.73
2018-06-20T03:30:11.553Z,98538.28
2018-06-20T03:30:43.158Z,98539.17
2018-06-20T03:31:14.737Z,98536.20
2018-06-20T03:31:46.303Z,98539.19
2018-06-20T03:32:17.909Z,98540.47
2018-06-20T03:32:49.497Z,98543.02
2018-06-20T03:33:21.074Z,98543.02
2018-06-20T03:33:52.682Z,98541.31
2018-06-20T03:34:24.270Z,98543.88
2018-06-20T03:34:55.883Z,98540.88
2018-06-20T03:35:27.500Z,98540.47
2018-06-20T03:35:59.082Z,98540.04
2018-06-20T03:36:30.671Z,98542.17
2018-06-20T03:37:02.261Z,98545.63
2018-06-20T03:37:33.862Z,98543.88
2018-06-20T03:38:05.460Z,98547.75
2018-06-20T03:38:37.032Z,98546.48
2018-06-20T03:39:08.603Z,98544.77
2018-06-20T03:39:40.224Z,98541.36
2018-06-20T03:40:11.805Z,98546.05
2018-06-20T03:40:43.404Z,98545.20
2018-06-20T03:41:15.014Z,98549.05
2018-06-20T03:41:46.621Z,98550.75
2018-06-20T03:42:18.202Z,98548.19
2018-06-20T03:42:49.781Z,98551.17
2018-06-20T03:43:21.402Z,98552.03
2018-06-20T03:43:52.986Z,98555.02
2018-06-20T03:44:24.585Z,98552.45
2018-06-20T03:44:56.189Z,98551.64
2018-06-20T03:45:27.798Z,98551.59
2018-06-20T03:45:59.385Z,98552.45
2018-06-20T03:46:30.965Z,98552.45
2018-06-20T03:47:02.543Z,98551.21
2018-06-20T03:47:34.162Z,98552.87
2018-06-20T03:48:05.811Z,98548.19
2018-06-20T03:48:37.426Z,98557.99
2018-06-20T03:49:09.003Z,98554.16
2018-06-20T03:49:40.590Z,98549.89
2018-06-20T03:50:12.194Z,98551.59
2018-06-20T03:50:43.801Z,98553.73
2018-06-20T03:51:15.405Z,98555.44
2018-06-20T03:51:47.014Z,98553.34
2018-06-20T03:52:18.622Z,98551.64
2018-06-20T03:52:50.224Z,98549.09
2018-06-20T03:53:21.873Z,98555.48
2018-06-20T03:53:53.462Z,98552.50
2018-06-20T03:54:25.048Z,98554.64
2018-06-20T03:54:56.626Z,98552.54
2018-06-20T03:55:28.205Z,98553.39
2018-06-20T03:55:59.771Z,98555.09
2018-06-20T03:56:31.349Z,98557.23
2018-06-20T03:57:02.931Z,98550.83
2018-06-20T03:57:34.532Z,98555.53
2018-06-20T03:58:06.141Z,98556.80
2018-06-20T03:58:37.769Z,98555.95
2018-06-20T03:59:09.364Z,98558.09
2018-06-20T03:59:40.977Z,98553.83
2018-06-20T04:00:12.558Z,98553.39
2018-06-20T04:00:44.124Z,98557.23
2018-06-20T04:01:15.721Z,98558.94
2018-06-20T04:01:47.300Z,98555.10
2018-06-20T04:02:18.972Z,98556.38
2018-06-20T04:02:50.553Z,98554.25
2018-06-20T04:03:22.142Z,98558.51
2018-06-20T04:03:53.712Z,98554.25
2018-06-20T04:04:25.316Z,98554.25
2018-06-20T04:04:56.912Z,98555.10
2018-06-20T04:05:28.517Z,98549.98
2018-06-20T04:06:00.126Z,98551.27
2018-06-20T04:06:31.716Z,98559.37
2018-06-20T04:07:03.287Z,98558.09
2018-06-20T04:07:34.918Z,98552.13
2018-06-20T04:08:06.517Z,98554.68
2018-06-20T04:08:38.111Z,98553.02
2018-06-20T04:09:09.717Z,98554.26
2018-06-20T04:09:41.321Z,98556.39
2018-06-20T04:10:12.919Z,98556.81
2018-06-20T04:10:44.512Z,98554.68
2018-06-20T04:11:16.093Z,98555.53
2018-06-20T04:11:47.702Z,98546.58
2018-06-20T04:12:19.276Z,98552.55
2018-06-20T04:12:51.054Z,98555.96
2018-06-20T04:13:22.500Z,98552.13
2018-06-20T04:13:54.082Z,98554.25
2018-06-20T04:14:25.697Z,98555.53
2018-06-20T04:14:57.540Z,98550.38
2018-06-20T04:15:29.148Z,98551.64
2018-06-20T04:16:00.757Z,98551.17
2018-06-20T04:16:32.361Z,98538.56
2018-06-20T04:17:03.959Z,98556.33
2018-06-20T04:17:35.533Z,98557.61
2018-06-20T04:18:07.177Z,98554.20
2018-06-20T04:18:38.765Z,98555.48
2018-06-20T04:19:10.375Z,98559.31
2018-06-20T04:19:41.971Z,98554.20
2018-06-20T04:20:13.577Z,98553.73
2018-06-20T04:20:45.171Z,98556.28
2018-06-20T04:21:16.743Z,98556.23
2018-06-20T04:21:48.358Z,98558.38
2018-06-20T04:22:19.969Z,98554.16
2018-06-20T04:22:51.540Z,98553.30
2018-06-20T04:23:23.166Z,98554.16
2018-06-20T04:23:54.824Z,98553.77
2018-06-20T04:24:26.432Z,98546.52
2018-06-20T04:24:58.018Z,98554.20
2018-06-20T04:25:29.594Z,98554.63
2018-06-20T04:26:01.188Z,98553.34
2018-06-20T04:26:32.802Z,98553.77
2018-06-20T04:27:04.469Z,98558.04
2018-06-20T04:27:36.054Z,98558.89
2018-06-20T04:28:07.726Z,98556.33
2018-06-20T04:28:39.275Z,98554.20
2018-06-20T04:29:10.921Z,98556.72
2018-06-20T04:29:42.509Z,98555.91
2018-06-20T04:30:14.099Z,98549.51
2018-06-20T04:30:45.705Z,98556.30
2018-06-20T04:31:17.309Z,98549.89
2018-06-20T04:31:48.913Z,98559.13
2018-06-20T04:32:20.497Z,98555.60
2018-06-20T04:32:52.064Z,98553.00
2018-06-20T04:33:23.656Z,98559.87
2018-06-20T04:33:55.256Z,98557.80
2018-06-20T04:34:26.909Z,98554.28
2018-06-20T04:34:58.537Z,98559.29
2018-06-20T04:35:30.149Z,98554.65
2018-06-20T04:36:01.762Z,98558.08
2018-06-20T04:36:33.346Z,98559.87
2018-06-20T04:37:04.931Z,98557.80
2018-06-20T04:37:36.513Z,98543.06
2018-06-20T04:38:08.118Z,98555.71
2018-06-20T04:38:39.725Z,98560.45
2018-06-20T04:39:11.362Z,98555.33
2018-06-20T04:39:42.960Z,98560.58
2018-06-20T04:40:14.555Z,98558.66
2018-06-20T04:40:46.141Z,98556.64
2018-06-20T04:41:17.707Z,98557.58
2018-06-20T04:41:49.290Z,98556.80
2018-06-20T04:42:20.873Z,98554.34
2018-06-20T04:42:52.471Z,98557.84
2018-06-20T04:43:24.040Z,98556.61
2018-06-20T04:43:55.640Z,98557.47
2018-06-20T04:44:27.290Z,98557.94
2018-06-20T04:44:58.929Z,98556.66
2018-06-20T04:45:30.522Z,98559.60
2018-06-20T04:46:02.106Z,98561.26
2018-06-20T04:46:33.689Z,98561.67
2018-06-20T04:47:05.262Z,98564.67
2018-06-20T04:47:36.838Z,98565.14
2018-06-20T04:48:08.428Z,98562.16
2018-06-20T04:48:40.010Z,98568.45
2018-06-20T04:49:11.582Z,98569.81
2018-06-20T04:49:43.206Z,98567.67
2018-06-20T04:50:14.790Z,98567.80
2018-06-20T04:50:46.380Z,98565.44
2018-06-20T04:51:17.986Z,98569.59
2018-06-20T04:51:49.598Z,98570.03
2018-06-20T04:52:21.238Z,98566.73
2018-06-20T04:52:52.862Z,98563.86
2018-06-20T04:53:24.441Z,98564.02
2018-06-20T04:53:56.012Z,98565.78
2018-06-20T04:54:27.604Z,98565.86
2018-06-20T04:54:59.213Z,98564.69
2018-06-20T04:55:30.830Z,98559.30
2018-06-20T04:56:02.430Z,98559.83
2018-06-20T04:56:34.014Z,98561.22
2018-06-20T04:57:05.648Z,98564.30
2018-06-20T04:57:37.229Z,98568.20
2018-06-20T04:58:08.810Z,98563.99
2018-06-20T04:58:40.422Z,98567.87
2018-06-20T04:59:12.020Z,98563.23
2018-06-20T04:59:43.630Z,98569.69
2018-06-20T05:00:15.260Z,98558.22
2018-06-20T05:00:47.375Z,98566.33
2018-06-20T05:01:18.962Z,98566.37
2018-06-20T05:01:50.566Z,98560.84
2018-06-20T05:02:22.169Z,98563.86
2018-06-20T05:02:53.740Z,98561.73
2018-06-20T05:03:25.386Z,98560.45
2018-06-20T05:03:56.993Z,98564.72
2018-06-20T05:04:28.579Z,98565.14
2018-06-20T05:05:00.252Z,98563.86
2018-06-20T05:05:31.848Z,98567.66
2018-06-20T05:06:03.497Z,98563.81
2018-06-20T05:06:35.078Z,98564.66
2018-06-20T05:07:06.659Z,98563.38
2018-06-20T05:07:38.260Z,98563.81
2018-06-20T05:08:09.843Z,98564.23
2018-06-20T05:08:41.429Z,98564.23
2018-06-20T05:09:13.029Z,98567.22
2018-06-20T05:09:44.620Z,98565.52
2018-06-20T05:10:16.206Z,98571.91
2018-06-20T05:10:47.830Z,98563.39
2018-06-20T05:11:19.472Z,98562.53
2018-06-20T05:11:51.090Z,98568.92
2018-06-20T05:12:22.682Z,98563.38
2018-06-20T05:12:54.281Z,98565.05
2018-06-20T05:13:25.876Z,98558.66
2018-06-20T05:13:57.448Z,98562.06
2018-06-20T05:14:29.049Z,98559.08
2018-06-20T05:15:00.633Z,98559.50
2018-06-20T05:15:32.200Z,98559.93
2018-06-20T05:16:03.834Z,98558.66
2018-06-20T05:16:35.413Z,98553.52
2018-06-20T05:17:07.022Z,98559.45
2018-06-20T05:17:38.616Z,98559.03
2018-06-20T05:18:10.212Z,98558.98
2018-06-20T05:18:41.796Z,98558.11
2018-06-20T05:19:13.398Z,98560.20
2018-06-20T05:19:45.028Z,98561.05
2018-06-20T05:20:16.633Z,98559.77
2018-06-20T05:20:48.227Z,98563.52
2018-06-20T05:21:19.833Z,98563.09
2018-06-20T05:21:51.445Z,98569.05
2018-06-20T05:22:23.045Z,98568.59
2018-06-20T05:22:54.650Z,98564.73
2018-06-20T05:23:26.243Z,98566.45
2018-06-20T05:23:57.825Z,98566.02
2018-06-20T05:24:29.401Z,98565.64
2018-06-20T05:25:00.985Z,98563.08
2018-06-20T05:25:32.638Z,98566.06
2018-06-20T05:26:04.241Z,98561.84
2018-06-20T05:26:35.819Z,98567.73
2018-06-20T05:27:07.421Z,98565.60
2018-06-20T05:27:39.002Z,98566.45
2018-06-20T05:28:10.610Z,98566.49
2018-06-20T05:28:42.218Z,98569.05
2018-06-20T05:29:13.805Z,98562.66
2018-06-20T05:29:45.391Z,98563.56
2018-06-20T05:30:16.974Z,98565.70
2018-06-20T05:30:48.626Z,98566.98
2018-06-20T05:31:20.233Z,98563.61
2018-06-20T05:31:51.817Z,98571.29
2018-06-20T05:32:23.391Z,98567.45
2018-06-20T05:32:55.002Z,98564.47
2018-06-20T05:33:26.579Z,98570.88
2018-06-20T05:33:58.166Z,98570.02
2018-06-20T05:34:29.736Z,98574.27
2018-06-20T05:35:01.346Z,98571.28
2018-06-20T05:35:32.970Z,98566.16
2018-06-20T05:36:04.559Z,98570.00
2018-06-20T05:36:36.165Z,98570.44
2018-06-20T05:37:07.777Z,98569.12
2018-06-20T05:37:39.353Z,98566.18
2018-06-20T05:38:10.952Z,98567.92
2018-06-20T05:38:42.597Z,98566.60
2018-06-20T05:39:14.283Z,98569.59
2018-06-20T05:39:45.869Z,98569.59
2018-06-20T05:40:17.478Z,98567.45
2018-06-20T05:40:49.137Z,98567.46
2018-06-20T05:41:20.722Z,98568.31
2018-06-20T05:41:52.307Z,98567.50
2018-06-20T05:42:23.908Z,98567.93
2018-06-20T05:42:55.517Z,98569.59
2018-06-20T05:43:27.102Z,98565.75
2018-06-20T05:43:58.682Z,98570.02
2018-06-20T05:44:30.281Z,98572.58
2018-06-20T05:45:01.880Z,98568.31
2018-06-20T05:45:33.502Z,98576.41
2018-06-20T05:46:05.145Z,98572.14
2018-06-20T05:46:36.749Z,98572.14
2018-06-20T05:47:08.407Z,98569.16
2018-06-20T05:47:39.976Z,98572.14
2018-06-20T05:48:11.544Z,98574.28
2018-06-20T05:48:43.130Z,98568.35
2018-06-20T05:49:14.737Z,98572.57
2018-06-20T05:49:46.328Z,98567.45
2018-06-20T05:50:17.968Z,98568.30
2018-06-20T05:50:49.573Z,98571.30
2018-06-20T05:51:21.168Z,98570.01
2018-06-20T05:51:52.759Z,98564.46
2018-06-20T05:52:24.332Z,98563.61
2018-06-20T05:52:55.903Z,98569.53
2018-06-20T05:53:27.514Z,98565.70
2018-06-20T05:53:59.198Z,98567.41
2018-06-20T05:54:30.757Z,98564.41
2018-06-20T05:55:02.361Z,98564.84
2018-06-20T05:55:33.990Z,98562.71
2018-06-20T05:56:05.597Z,98571.24
2018-06-20T05:56:37.191Z,98567.41
2018-06-20T05:57:08.764Z,98566.55
2018-06-20T05:57:40.365Z,98567.83
2018-06-20T05:58:11.944Z,98567.41
2018-06-20T05:58:43.590Z,98561.86
2018-06-20T05:59:15.184Z,98563.14
2018-06-20T05:59:46.756Z,98559.73
2018-06-20T06:00:18.363Z,98566.13
2018-06-20T06:00:49.987Z,98566.98
2018-06-20T06:01:21.577Z,98562.72
2018-06-20T06:01:53.211Z,98558.48
2018-06-20T06:02:24.808Z,98566.55
2018-06-20T06:02:56.433Z,98564.42
2018-06-20T06:03:28.015Z,98561.05
2018-06-20T06:03:59.660Z,98559.34
2018-06-20T06:04:31.250Z,98555.50
2018-06-20T06:05:02.854Z,98562.34
2018-06-20T06:05:34.457Z,98560.20
2018-06-20T06:06:06.042Z,98561.06
2018-06-20T06:06:37.652Z,98561.06
2018-06-20T06:07:09.234Z,98557.69
2018-06-20T06:07:40.842Z,98564.08
2018-06-20T06:08:12.481Z,98563.62
2018-06-20T06:08:44.086Z,98560.25
2018-06-20T06:09:15.660Z,98561.10
2018-06-20T06:09:47.242Z,98566.22
2018-06-20T06:10:18.850Z,98563.23
2018-06-20T06:10:50.437Z,98560.67